Time;durP1;ratioP1;P1;durP2;ratioP2;P2;SDS_P1;SDS_P2;PMS_P1;PMS_P2;Temp;Humidity;BMP_temperature;BMP_pressure;BME280_temperature;BME280_humidity;BME280_pressure;Samples;Min_cycle;Max_cycle;Signal;HPM_P1;HPM_P2
2022/08/14 00:01:13;;;;;;;28.67;16.33;;;;;;;;;;10453380;28;20024;-74
2022/08/14 00:06:13;;;;;;;27.15;15.52;;;;;;;;;;10454288;28;20100;-75
2022/08/14 00:11:13;;;;;;;26.27;17.20;;;;;;;;;;10452780;28;20051;-74
2022/08/14 00:16:14;;;;;;;24.23;14.68;;;;;;;;;;10454186;28;20075;-74
2022/08/14 00:21:14;;;;;;;26.13;14.27;;;;;;;;;;10453440;28;20410;-74
2022/08/14 00:26:14;;;;;;;24.60;14.63;;;;;;;;;;10452087;28;20259;-74
2022/08/14 00:31:14;;;;;;;24.10;14.60;;;;;;;;;;10452080;28;20498;-74
2022/08/14 00:36:15;;;;;;;29.33;14.67;;;;;;;;;;10453679;28;20082;-74
2022/08/14 00:41:15;;;;;;;23.58;14.27;;;;;;;;;;10451706;28;20119;-74
2022/08/14 00:46:15;;;;;;;25.48;14.57;;;;;;;;;;10452738;28;20021;-75
2022/08/14 00:51:17;;;;;;;18.00;11.27;;;;;;;;;;10418436;28;20021;-74
2022/08/14 00:56:17;;;;;;;16.92;11.15;;;;;;;;;;10451743;28;20021;-74
2022/08/14 01:01:18;;;;;;;16.15;10.95;;;;;;;;;;10450850;28;20078;-74
2022/08/14 01:06:18;;;;;;;21.60;12.07;;;;;;;;;;10450969;28;20028;-74
2022/08/14 01:11:18;;;;;;;17.30;11.00;;;;;;;;;;10450470;28;20020;-75
2022/08/14 01:16:19;;;;;;;18.38;11.50;;;;;;;;;;10450910;28;20021;-74
2022/08/14 01:21:24;;;;;;;15.68;11.10;;;;;;;;;;10450742;28;20025;-74
2022/08/14 01:26:25;;;;;;;20.20;12.00;;;;;;;;;;10450484;28;20013;-74
2022/08/14 01:31:27;;;;;;;20.92;11.75;;;;;;;;;;10450423;28;20021;-74
2022/08/14 01:36:29;;;;;;;17.20;11.25;;;;;;;;;;10450542;28;20024;-74
2022/08/14 01:41:30;;;;;;;20.65;12.30;;;;;;;;;;10454237;28;20052;-74
2022/08/14 01:46:33;;;;;;;18.45;11.95;;;;;;;;;;10458390;28;20420;-74
2022/08/14 01:51:34;;;;;;;19.05;12.57;;;;;;;;;;10458346;28;20525;-74
2022/08/14 01:56:36;;;;;;;16.27;11.02;;;;;;;;;;10458108;28;20028;-75
2022/08/14 02:01:37;;;;;;;20.73;12.40;;;;;;;;;;10458373;28;20027;-75
2022/08/14 02:06:37;;;;;;;19.75;11.52;;;;;;;;;;10457604;28;20455;-74
2022/08/14 02:11:37;;;;;;;21.20;13.40;;;;;;;;;;10457561;28;20048;-75
2022/08/14 02:16:39;;;;;;;20.07;12.30;;;;;;;;;;10471566;28;20021;-74
2022/08/14 02:21:40;;;;;;;20.45;12.52;;;;;;;;;;10456982;28;20024;-74
2022/08/14 02:26:41;;;;;;;20.08;11.18;;;;;;;;;;10456986;28;20517;-74
2022/08/14 02:31:44;;;;;;;20.25;11.43;;;;;;;;;;10458021;28;20375;-74
2022/08/14 02:36:45;;;;;;;18.33;10.68;;;;;;;;;;10456572;28;20029;-74
2022/08/14 02:41:50;;;;;;;16.23;10.95;;;;;;;;;;10439648;28;20677;-74
2022/08/14 02:46:51;;;;;;;24.88;12.02;;;;;;;;;;10439493;28;20037;-74
2022/08/14 02:51:53;;;;;;;16.52;10.32;;;;;;;;;;10455807;28;20032;-78
2022/08/14 02:56:55;;;;;;;19.73;11.90;;;;;;;;;;10469262;28;20028;-73
2022/08/14 03:01:56;;;;;;;23.73;14.50;;;;;;;;;;10457018;28;20017;-75
2022/08/14 03:06:56;;;;;;;30.52;16.67;;;;;;;;;;10457001;28;20025;-75
2022/08/14 03:11:56;;;;;;;29.23;15.27;;;;;;;;;;10456713;28;20051;-74
2022/08/14 03:16:57;;;;;;;36.10;17.27;;;;;;;;;;10454806;28;20271;-75
2022/08/14 03:21:57;;;;;;;29.67;15.63;;;;;;;;;;10454530;28;20024;-74
2022/08/14 03:26:57;;;;;;;23.70;15.20;;;;;;;;;;10455889;28;20028;-76
2022/08/14 03:31:58;;;;;;;27.98;15.65;;;;;;;;;;10454639;28;20025;-74
2022/08/14 03:36:58;;;;;;;30.13;17.15;;;;;;;;;;10454125;28;20112;-75
2022/08/14 03:41:58;;;;;;;34.60;17.07;;;;;;;;;;10453802;28;20114;-75
2022/08/14 03:46:58;;;;;;;31.30;19.33;;;;;;;;;;10453750;28;20474;-75
2022/08/14 03:52:03;;;;;;;46.80;23.63;;;;;;;;;;10432272;28;20032;-74
2022/08/14 03:57:04;;;;;;;49.00;22.98;;;;;;;;;;10453465;28;20478;-77
2022/08/14 04:02:04;;;;;;;43.65;22.27;;;;;;;;;;10453264;28;20098;-75
2022/08/14 04:07:04;;;;;;;46.75;21.77;;;;;;;;;;10454172;28;20041;-73
2022/08/14 04:12:05;;;;;;;54.00;23.77;;;;;;;;;;10452835;28;20513;-74
2022/08/14 04:17:05;;;;;;;58.03;28.17;;;;;;;;;;10452716;28;20088;-72
2022/08/14 04:22:05;;;;;;;85.40;38.70;;;;;;;;;;10451901;28;20279;-72
2022/08/14 04:27:07;;;;;;;99.55;41.60;;;;;;;;;;10452436;28;20131;-74
2022/08/14 04:32:08;;;;;;;67.75;32.85;;;;;;;;;;10435426;28;20017;-75
2022/08/14 04:48:32;;;;;;;52.63;26.13;;;;;;;;;;10453473;28;20029;-73
2022/08/14 04:53:09;;;;;;;57.40;26.30;;;;;;;;;;10441924;28;20138;-74
2022/08/14 04:58:09;;;;;;;47.28;23.65;;;;;;;;;;10405457;28;20075;-74
2022/08/14 05:03:10;;;;;;;46.95;24.50;;;;;;;;;;10450975;28;20048;-74
2022/08/14 05:08:13;;;;;;;48.05;25.52;;;;;;;;;;10452356;28;20031;-73
2022/08/14 05:13:13;;;;;;;45.90;24.10;;;;;;;;;;10450970;28;20032;-75
2022/08/14 05:18:14;;;;;;;41.17;22.27;;;;;;;;;;10430232;28;20418;-73
2022/08/14 05:23:17;;;;;;;40.67;22.77;;;;;;;;;;10417662;28;20025;-75
2022/08/14 05:28:18;;;;;;;35.28;20.38;;;;;;;;;;10450353;28;20036;-73
2022/08/14 05:33:19;;;;;;;37.53;20.15;;;;;;;;;;10424101;28;20032;-74
2022/08/14 05:38:23;;;;;;;30.67;17.95;;;;;;;;;;10451846;28;20409;-73
2022/08/14 05:43:23;;;;;;;36.50;19.95;;;;;;;;;;10449571;28;20114;-74
2022/08/14 05:48:24;;;;;;;38.40;21.27;;;;;;;;;;10450250;28;20029;-74
2022/08/14 05:53:25;;;;;;;40.88;19.58;;;;;;;;;;10450085;28;20477;-74
2022/08/14 05:58:26;;;;;;;37.53;20.02;;;;;;;;;;10458701;28;20490;-73
2022/08/14 06:03:26;;;;;;;33.65;19.20;;;;;;;;;;10433202;28;20156;-73
2022/08/14 06:08:27;;;;;;;31.35;18.33;;;;;;;;;;10449556;28;20115;-74
2022/08/14 06:13:31;;;;;;;34.60;19.42;;;;;;;;;;10414043;28;20033;-74
2022/08/14 06:18:32;;;;;;;32.83;18.70;;;;;;;;;;10450741;28;20025;-74
2022/08/14 06:23:32;;;;;;;31.02;18.30;;;;;;;;;;10449533;28;20028;-73
2022/08/14 06:28:32;;;;;;;32.63;16.48;;;;;;;;;;10453651;28;20024;-74
2022/08/14 06:33:33;;;;;;;28.20;16.85;;;;;;;;;;10456628;28;20020;-74
2022/08/14 06:38:33;;;;;;;29.63;17.98;;;;;;;;;;10457652;28;20100;-75
2022/08/14 06:43:34;;;;;;;30.73;18.15;;;;;;;;;;10456134;28;20132;-73
2022/08/14 06:48:34;;;;;;;32.83;18.23;;;;;;;;;;10456177;28;20032;-76
2022/08/14 06:53:34;;;;;;;30.83;16.42;;;;;;;;;;10456074;28;20016;-74
2022/08/14 06:58:34;;;;;;;28.88;17.08;;;;;;;;;;10456923;28;20029;-73
2022/08/14 07:08:53;;;;;;;29.48;17.45;;;;;;;;;;10457023;28;20017;-73
2022/08/14 07:13:53;;;;;;;36.10;18.20;;;;;;;;;;10456429;28;20024;-74
2022/08/14 07:18:55;;;;;;;35.08;18.38;;;;;;;;;;10454827;28;20017;-74
2022/08/14 07:23:55;;;;;;;35.97;17.45;;;;;;;;;;10454697;28;20017;-75
2022/08/14 07:28:55;;;;;;;30.90;17.73;;;;;;;;;;10454308;28;20036;-74
2022/08/14 07:33:55;;;;;;;29.52;17.92;;;;;;;;;;10454376;28;20035;-74
2022/08/14 07:38:59;;;;;;;27.13;17.13;;;;;;;;;;10453286;28;20013;-74
2022/08/14 07:44:00;;;;;;;25.60;16.20;;;;;;;;;;10453667;28;20605;-75
2022/08/14 07:49:00;;;;;;;23.73;15.13;;;;;;;;;;10453821;28;20104;-74
2022/08/14 07:54:00;;;;;;;25.02;15.25;;;;;;;;;;10453448;28;20031;-72
2022/08/14 07:59:01;;;;;;;21.40;14.10;;;;;;;;;;10453446;28;20074;-74
2022/08/14 08:04:02;;;;;;;17.83;12.25;;;;;;;;;;10453010;28;20398;-74
2022/08/14 08:09:02;;;;;;;16.40;10.93;;;;;;;;;;10453022;28;20056;-75
2022/08/14 08:14:07;;;;;;;18.10;11.18;;;;;;;;;;10452700;28;20017;-74
2022/08/14 08:19:09;;;;;;;17.13;10.77;;;;;;;;;;10452475;28;20138;-74
2022/08/14 08:24:09;;;;;;;16.27;11.25;;;;;;;;;;10452277;28;20024;-74
2022/08/14 08:29:17;;;;;;;18.25;11.40;;;;;;;;;;10452068;28;20028;-74
2022/08/14 08:34:19;;;;;;;16.98;12.45;;;;;;;;;;10451977;28;20072;-74
2022/08/14 08:39:19;;;;;;;21.55;13.13;;;;;;;;;;10465048;28;20120;-73
2022/08/14 08:44:27;;;;;;;14.98;10.15;;;;;;;;;;10452147;28;20124;-73
2022/08/14 08:49:34;;;;;;;14.85;9.68;;;;;;;;;;10451756;28;20032;-74
2022/08/14 08:54:35;;;;;;;9.48;6.63;;;;;;;;;;10452385;28;20040;-73
2022/08/14 08:59:35;;;;;;;7.85;5.45;;;;;;;;;;10450837;28;20532;-72
2022/08/14 09:04:37;;;;;;;9.90;5.18;;;;;;;;;;10450843;28;20025;-75
2022/08/14 09:09:53;;;;;;;7.93;5.63;;;;;;;;;;10450695;28;20017;-74
2022/08/14 09:14:54;;;;;;;9.38;5.25;;;;;;;;;;10451655;28;20561;-74
2022/08/14 09:19:55;;;;;;;16.05;5.63;;;;;;;;;;10419224;28;20047;-73
2022/08/14 09:24:55;;;;;;;9.07;5.53;;;;;;;;;;10451477;28;20075;-74
2022/08/14 09:29:55;;;;;;;9.75;5.88;;;;;;;;;;10451618;28;20024;-73
2022/08/14 09:35:02;;;;;;;6.00;4.60;;;;;;;;;;10419423;28;20402;-74
2022/08/14 09:40:03;;;;;;;11.50;4.93;;;;;;;;;;10449843;28;20091;-73
2022/08/14 09:45:04;;;;;;;4.97;3.80;;;;;;;;;;10449564;28;20109;-73
2022/08/14 09:50:14;;;;;;;5.00;3.95;;;;;;;;;;10449587;28;20102;-73
2022/08/14 09:55:22;;;;;;;5.13;3.63;;;;;;;;;;10449775;28;20104;-73
2022/08/14 10:00:40;;;;;;;7.07;4.70;;;;;;;;;;10409080;28;20026;-74
2022/08/14 10:05:41;;;;;;;6.00;4.43;;;;;;;;;;10440540;28;20466;-73
2022/08/14 10:10:42;;;;;;;7.88;5.15;;;;;;;;;;10457155;28;20047;-73
2022/08/14 10:15:48;;;;;;;8.35;6.00;;;;;;;;;;10457131;28;20028;-75
2022/08/14 10:20:48;;;;;;;9.40;5.60;;;;;;;;;;10456404;28;20017;-75
2022/08/14 10:25:50;;;;;;;9.10;5.30;;;;;;;;;;10440026;28;20017;-73
2022/08/14 10:30:53;;;;;;;7.57;5.57;;;;;;;;;;10456290;28;20033;-73
2022/08/14 10:35:54;;;;;;;7.72;5.60;;;;;;;;;;10456352;28;20094;-74
2022/08/14 10:40:56;;;;;;;8.23;5.28;;;;;;;;;;10456327;28;20051;-74
2022/08/14 10:45:57;;;;;;;8.70;5.20;;;;;;;;;;10455836;28;20460;-74
2022/08/14 10:50:58;;;;;;;7.65;4.95;;;;;;;;;;10455541;28;20016;-74
2022/08/14 10:56:00;;;;;;;7.30;4.05;;;;;;;;;;10457207;28;20086;-74
2022/08/14 11:01:04;;;;;;;4.32;3.30;;;;;;;;;;10455659;28;20023;-74
2022/08/14 11:06:18;;;;;;;5.30;3.67;;;;;;;;;;10455236;28;20024;-74
2022/08/14 11:11:19;;;;;;;7.68;4.55;;;;;;;;;;10455263;28;20044;-74
2022/08/14 11:16:20;;;;;;;4.65;4.20;;;;;;;;;;10453707;28;20025;-74
2022/08/14 11:21:21;;;;;;;7.47;4.37;;;;;;;;;;10455836;28;20017;-74
2022/08/14 11:26:24;;;;;;;5.93;4.57;;;;;;;;;;10454521;28;20351;-74
2022/08/14 11:31:24;;;;;;;6.75;5.15;;;;;;;;;;10437577;28;20076;-74
2022/08/14 11:36:27;;;;;;;7.18;5.10;;;;;;;;;;10453954;28;20032;-74
2022/08/14 11:41:27;;;;;;;7.50;5.20;;;;;;;;;;10453550;28;20048;-74
2022/08/14 11:46:27;;;;;;;8.50;5.40;;;;;;;;;;10453558;28;20387;-74
2022/08/14 11:51:27;;;;;;;10.00;5.70;;;;;;;;;;10453042;28;20099;-75
2022/08/14 11:56:39;;;;;;;8.73;6.10;;;;;;;;;;10453019;28;20387;-74
2022/08/14 12:01:39;;;;;;;8.93;5.43;;;;;;;;;;10453754;28;20029;-74
2022/08/14 12:06:47;;;;;;;9.32;6.85;;;;;;;;;;10425603;28;20402;-73
2022/08/14 12:11:48;;;;;;;10.88;6.00;;;;;;;;;;10453472;28;20108;-74
2022/08/14 12:16:58;;;;;;;8.07;6.28;;;;;;;;;;10452153;28;20124;-74
2022/08/14 12:21:58;;;;;;;9.18;6.10;;;;;;;;;;10451668;28;20470;-75
2022/08/14 12:26:58;;;;;;;8.27;6.43;;;;;;;;;;10452658;28;20066;-75
2022/08/14 12:32:05;;;;;;;8.63;6.35;;;;;;;;;;10451111;28;20048;-74
2022/08/14 12:37:07;;;;;;;7.90;5.55;;;;;;;;;;10450811;28;20028;-73
2022/08/14 12:42:09;;;;;;;12.65;6.60;;;;;;;;;;10450526;28;20040;-73
2022/08/14 12:47:16;;;;;;;7.15;5.82;;;;;;;;;;10450683;28;20025;-76
2022/08/14 12:52:25;;;;;;;9.80;6.38;;;;;;;;;;10450339;28;20490;-73
2022/08/14 12:57:36;;;;;;;9.80;6.28;;;;;;;;;;10451617;28;20410;-73
2022/08/14 13:02:38;;;;;;;8.32;5.78;;;;;;;;;;10450183;28;20107;-74
2022/08/14 13:07:39;;;;;;;8.90;6.82;;;;;;;;;;10449795;28;20082;-74
2022/08/14 13:12:40;;;;;;;14.50;6.55;;;;;;;;;;10449860;28;20500;-73
2022/08/14 13:17:44;;;;;;;11.00;7.13;;;;;;;;;;10425229;28;20104;-74
2022/08/14 13:22:45;;;;;;;9.60;7.00;;;;;;;;;;10450993;28;20190;-74
2022/08/14 13:27:49;;;;;;;13.27;8.15;;;;;;;;;;10423192;28;20021;-74
2022/08/14 13:32:54;;;;;;;13.10;7.68;;;;;;;;;;10450116;28;20033;-73
2022/08/14 13:37:54;;;;;;;11.43;8.43;;;;;;;;;;10436907;28;20032;-74
2022/08/14 13:42:54;;;;;;;12.05;7.93;;;;;;;;;;10441390;28;20425;-75
2022/08/14 13:47:55;;;;;;;14.23;8.35;;;;;;;;;;10458124;28;20032;-75
2022/08/14 13:52:57;;;;;;;18.25;10.32;;;;;;;;;;10457955;28;20032;-75
2022/08/14 13:58:01;;;;;;;10.68;7.22;;;;;;;;;;10457410;28;20518;-74
2022/08/14 14:03:04;;;;;;;12.43;6.63;;;;;;;;;;10457611;28;20044;-74
2022/08/14 14:08:05;;;;;;;15.00;8.13;;;;;;;;;;10456642;28;20013;-75
2022/08/14 14:13:06;;;;;;;12.90;8.02;;;;;;;;;;10456994;28;20024;-74
2022/08/14 14:18:07;;;;;;;14.05;8.75;;;;;;;;;;10457287;28;20167;-74
2022/08/14 14:23:09;;;;;;;12.75;8.75;;;;;;;;;;10456989;28;20021;-74
2022/08/14 14:28:11;;;;;;;14.18;8.95;;;;;;;;;;10456541;28;20040;-74
2022/08/14 14:33:12;;;;;;;15.80;11.05;;;;;;;;;;10456569;28;20025;-74
2022/08/14 14:38:16;;;;;;;10.25;7.43;;;;;;;;;;10456621;28;20057;-74
2022/08/14 14:43:16;;;;;;;12.52;7.57;;;;;;;;;;10430899;28;20053;-74
2022/08/14 14:48:17;;;;;;;11.82;6.85;;;;;;;;;;10385820;28;20514;-73
2022/08/14 14:53:19;;;;;;;9.98;6.35;;;;;;;;;;10430974;28;20105;-74
2022/08/14 14:58:19;;;;;;;7.88;5.10;;;;;;;;;;10430744;28;20021;-74
2022/08/14 15:03:19;;;;;;;7.80;6.13;;;;;;;;;;10415228;28;20048;-75
2022/08/14 15:08:20;;;;;;;11.38;5.35;;;;;;;;;;10413709;28;20025;-74
2022/08/14 15:13:20;;;;;;;8.82;5.40;;;;;;;;;;10413846;28;20074;-74
2022/08/14 15:18:27;;;;;;;7.05;4.78;;;;;;;;;;10430200;28;20530;-74
2022/08/14 15:23:28;;;;;;;10.40;6.40;;;;;;;;;;10414762;28;20105;-74
2022/08/14 15:28:29;;;;;;;11.55;8.35;;;;;;;;;;10429664;28;20013;-74
2022/08/14 15:38:50;;;;;;;9.38;6.28;;;;;;;;;;10414452;28;20025;-72
2022/08/14 15:43:50;;;;;;;9.05;5.82;;;;;;;;;;10395854;28;20042;-73
2022/08/14 15:48:51;;;;;;;9.25;6.57;;;;;;;;;;10413328;28;20029;-73
2022/08/14 15:53:51;;;;;;;11.80;7.50;;;;;;;;;;10428576;28;20478;-73
2022/08/14 15:58:51;;;;;;;12.38;7.00;;;;;;;;;;10412022;28;20339;-74
2022/08/14 16:03:53;;;;;;;10.63;7.07;;;;;;;;;;10390158;28;20021;-74
2022/08/14 16:08:55;;;;;;;8.43;6.13;;;;;;;;;;10428161;28;20021;-74
2022/08/14 16:13:55;;;;;;;8.80;5.97;;;;;;;;;;10427823;28;20017;-74
2022/08/14 16:18:57;;;;;;;12.00;6.70;;;;;;;;;;10427756;28;20550;-75
2022/08/14 16:23:58;;;;;;;10.18;6.18;;;;;;;;;;10427273;28;20049;-74
2022/08/14 16:29:08;;;;;;;9.73;6.28;;;;;;;;;;10427229;28;20025;-74
2022/08/14 16:34:08;;;;;;;13.63;7.80;;;;;;;;;;10411770;28;20038;-74
2022/08/14 16:39:09;;;;;;;10.10;6.38;;;;;;;;;;10426773;28;20028;-74
2022/08/14 16:44:11;;;;;;;9.07;6.22;;;;;;;;;;10426159;28;20057;-76
2022/08/14 16:49:14;;;;;;;22.20;8.30;;;;;;;;;;10412149;28;20017;-74
2022/08/14 16:54:15;;;;;;;13.48;8.30;;;;;;;;;;10395305;28;20029;-74
2022/08/14 16:59:18;;;;;;;14.38;9.27;;;;;;;;;;10410957;28;20101;-75
2022/08/14 17:04:19;;;;;;;19.02;9.32;;;;;;;;;;10425920;28;20024;-74
2022/08/14 17:09:22;;;;;;;10.85;7.15;;;;;;;;;;10410940;28;20101;-74
2022/08/14 17:14:24;;;;;;;11.95;8.30;;;;;;;;;;10425305;28;20025;-74
2022/08/14 17:19:24;;;;;;;15.75;8.55;;;;;;;;;;10425441;28;20104;-73
2022/08/14 17:24:25;;;;;;;14.30;9.85;;;;;;;;;;10391661;28;20120;-73
2022/08/14 17:29:27;;;;;;;18.73;9.20;;;;;;;;;;10425237;28;20018;-73
2022/08/14 17:34:46;;;;;;;14.05;9.65;;;;;;;;;;10425300;28;20156;-74
2022/08/14 17:39:58;;;;;;;14.70;9.77;;;;;;;;;;10426702;28;20057;-73
2022/08/14 17:44:59;;;;;;;21.70;10.05;;;;;;;;;;10449623;28;20087;-73
2022/08/14 17:50:02;;;;;;;17.00;9.23;;;;;;;;;;10450919;28;20067;-74
2022/08/14 17:55:04;;;;;;;12.23;8.50;;;;;;;;;;10449845;28;20082;-75
2022/08/14 18:00:07;;;;;;;19.48;8.55;;;;;;;;;;10449519;28;20474;-76
2022/08/14 18:05:08;;;;;;;11.88;8.57;;;;;;;;;;10449762;28;20399;-75
2022/08/14 18:10:08;;;;;;;12.27;8.73;;;;;;;;;;10449592;28;20028;-74
2022/08/14 18:15:10;;;;;;;15.27;8.23;;;;;;;;;;10449552;28;20048;-75
2022/08/14 18:20:11;;;;;;;13.02;8.70;;;;;;;;;;10450374;28;20376;-74
2022/08/14 18:25:12;;;;;;;14.60;8.07;;;;;;;;;;10454481;28;20021;-75
2022/08/14 18:30:19;;;;;;;20.15;9.27;;;;;;;;;;10458208;28;20371;-74
2022/08/14 18:35:20;;;;;;;15.10;8.98;;;;;;;;;;10456671;28;20552;-74
2022/08/14 18:40:21;;;;;;;10.48;6.75;;;;;;;;;;10456457;28;20162;-74
2022/08/14 18:45:29;;;;;;;9.40;6.43;;;;;;;;;;10456574;28;20033;-75
2022/08/14 18:50:31;;;;;;;;;;;;;;;;;;10457978;28;20032;-75
2022/08/14 18:55:31;;;;;;;12.50;7.38;;;;;;;;;;10439316;28;20267;-74
2022/08/14 19:00:38;;;;;;;16.23;11.15;;;;;;;;;;10455160;28;20029;-75
2022/08/14 19:05:41;;;;;;;13.00;9.45;;;;;;;;;;10455279;28;20479;-74
2022/08/14 19:10:42;;;;;;;15.40;8.63;;;;;;;;;;10456705;28;20013;-74
2022/08/14 19:15:43;;;;;;;13.52;7.28;;;;;;;;;;10454920;28;20021;-77
2022/08/14 19:20:49;;;;;;;10.70;7.05;;;;;;;;;;10455707;28;20032;-75
2022/08/14 19:25:54;;;;;;;12.35;6.70;;;;;;;;;;10454212;28;20025;-75
2022/08/14 19:31:12;;;;;;;10.95;6.57;;;;;;;;;;10437886;28;20490;-75
2022/08/14 19:36:13;;;;;;;7.72;5.75;;;;;;;;;;10452414;28;20095;-75
2022/08/14 19:41:14;;;;;;;8.60;5.68;;;;;;;;;;10453620;28;20602;-74
2022/08/14 19:46:20;;;;;;;11.02;5.57;;;;;;;;;;10460574;28;20072;-74
2022/08/14 19:51:21;;;;;;;6.82;4.55;;;;;;;;;;10453190;28;20017;-74
2022/08/14 19:56:22;;;;;;;8.63;4.40;;;;;;;;;;10453268;28;20441;-74
2022/08/14 20:01:24;;;;;;;14.10;4.85;;;;;;;;;;10453185;28;20399;-75
2022/08/14 20:06:25;;;;;;;5.82;3.55;;;;;;;;;;10452856;28;20028;-75
2022/08/14 20:11:29;;;;;;;6.78;3.65;;;;;;;;;;10454228;28;20096;-74
2022/08/14 20:16:31;;;;;;;4.22;3.22;;;;;;;;;;10453455;28;20013;-75
2022/08/14 20:21:31;;;;;;;4.65;3.67;;;;;;;;;;10453742;28;20009;-75
2022/08/14 20:26:31;;;;;;;4.07;2.78;;;;;;;;;;10452051;28;20403;-74
2022/08/14 20:31:31;;;;;;;5.43;3.17;;;;;;;;;;10452024;28;20009;-74
2022/08/14 20:36:36;;;;;;;5.72;3.60;;;;;;;;;;10451700;28;20471;-74
2022/08/14 20:41:41;;;;;;;6.38;3.08;;;;;;;;;;10450526;28;20040;-73
2022/08/14 20:46:42;;;;;;;4.57;3.40;;;;;;;;;;10449308;28;20163;-73
2022/08/14 20:51:48;;;;;;;5.78;3.67;;;;;;;;;;10449329;28;20119;-74
2022/08/14 20:56:49;;;;;;;5.82;3.97;;;;;;;;;;10449827;28;20032;-73
2022/08/14 21:01:50;;;;;;;6.13;3.75;;;;;;;;;;10449210;28;20498;-73
2022/08/14 21:06:51;;;;;;;6.35;4.03;;;;;;;;;;10449224;28;20017;-73
2022/08/14 21:11:53;;;;;;;5.53;3.50;;;;;;;;;;10449175;28;20147;-74
2022/08/14 21:16:53;;;;;;;9.95;3.97;;;;;;;;;;10449018;28;20517;-73
2022/08/14 21:21:54;;;;;;;5.87;3.70;;;;;;;;;;10450246;28;20036;-73
2022/08/14 21:26:54;;;;;;;5.78;4.15;;;;;;;;;;10449321;28;20036;-74
2022/08/14 21:31:54;;;;;;;5.60;4.10;;;;;;;;;;10448425;28;20048;-73
2022/08/14 21:36:55;;;;;;;4.97;4.03;;;;;;;;;;10449780;28;20032;-73
2022/08/14 21:41:58;;;;;;;5.43;3.87;;;;;;;;;;10409704;28;1122907;-73
2022/08/14 21:46:58;;;;;;;7.13;3.45;;;;;;;;;;10451504;28;20340;-73
2022/08/14 21:52:00;;;;;;;5.72;4.20;;;;;;;;;;10449844;28;20052;-76
2022/08/14 21:57:03;;;;;;;5.10;4.05;;;;;;;;;;10450338;28;20021;-75
2022/08/14 22:02:04;;;;;;;6.25;4.07;;;;;;;;;;10459125;28;20063;-74
2022/08/14 22:07:06;;;;;;;4.97;4.05;;;;;;;;;;10424965;28;20013;-75
2022/08/14 22:12:07;;;;;;;7.38;4.90;;;;;;;;;;10457880;28;20033;-73
2022/08/14 22:17:07;;;;;;;6.70;4.50;;;;;;;;;;10457177;28;20131;-73
2022/08/14 22:22:08;;;;;;;9.25;4.43;;;;;;;;;;10440774;28;20135;-74
2022/08/14 22:27:09;;;;;;;7.95;4.00;;;;;;;;;;10457153;28;20413;-73
2022/08/14 22:32:09;;;;;;;6.72;4.10;;;;;;;;;;10457392;28;20024;-73
2022/08/14 22:37:09;;;;;;;6.15;3.78;;;;;;;;;;10428606;28;20029;-77
2022/08/14 22:42:10;;;;;;;6.53;4.07;;;;;;;;;;10439689;28;20044;-75
2022/08/14 22:47:10;;;;;;;5.00;3.67;;;;;;;;;;10456485;28;20017;-73
2022/08/14 22:52:12;;;;;;;8.98;3.55;;;;;;;;;;10457377;28;20047;-73
2022/08/14 22:57:12;;;;;;;5.72;4.20;;;;;;;;;;10455895;28;20040;-73
2022/08/14 23:02:15;;;;;;;5.97;4.22;;;;;;;;;;10455815;28;20032;-73
2022/08/14 23:07:16;;;;;;;5.95;4.00;;;;;;;;;;10455565;28;20439;-73
2022/08/14 23:12:17;;;;;;;6.75;3.85;;;;;;;;;;10427540;28;20036;-74
2022/08/14 23:17:17;;;;;;;4.55;3.47;;;;;;;;;;10454168;28;20031;-74
2022/08/14 23:22:17;;;;;;;17.40;6.60;;;;;;;;;;10455078;28;20021;-74
2022/08/14 23:27:18;;;;;;;7.22;3.83;;;;;;;;;;10454729;28;20024;-74
2022/08/14 23:32:18;;;;;;;5.68;4.13;;;;;;;;;;10456104;28;20028;-74
2022/08/14 23:37:18;;;;;;;5.37;4.10;;;;;;;;;;10454385;28;20024;-75
2022/08/14 23:42:18;;;;;;;6.60;5.15;;;;;;;;;;10454158;28;20045;-74
2022/08/14 23:47:19;;;;;;;6.93;5.28;;;;;;;;;;10455321;28;20068;-74
2022/08/14 23:52:20;;;;;;;7.57;5.05;;;;;;;;;;10453641;28;20025;-74
2022/08/14 23:57:20;;;;;;;7.22;5.85;;;;;;;;;;10453646;28;20510;-74
